sensor_id;sensor_type;location;lat;lon;timestamp;temperature;humidity
61201;DHT22;47065;52.898;6.992;2023-08-24T00:01:07;16.60;99.90
61201;DHT22;47065;52.898;6.992;2023-08-24T00:03:34;16.50;99.90
61201;DHT22;47065;52.898;6.992;2023-08-24T00:06:00;16.60;99.90
61201;DHT22;47065;52.898;6.992;2023-08-24T00:08:26;16.50;99.90
61201;DHT22;47065;52.898;6.992;2023-08-24T00:10:52;16.50;99.90
61201;DHT22;47065;52.898;6.992;2023-08-24T00:13:18;16.40;99.90
61201;DHT22;47065;52.898;6.992;2023-08-24T00:15:45;16.40;99.90
61201;DHT22;47065;52.898;6.992;2023-08-24T00:18:10;16.40;99.90
61201;DHT22;47065;52.898;6.992;2023-08-24T00:20:36;16.40;99.90
61201;DHT22;47065;52.898;6.992;2023-08-24T00:23:03;16.40;99.90
61201;DHT22;47065;52.898;6.992;2023-08-24T00:25:29;16.40;99.90
61201;DHT22;47065;52.898;6.992;2023-08-24T00:27:56;16.30;99.90
61201;DHT22;47065;52.898;6.992;2023-08-24T00:30:22;16.30;99.90
61201;DHT22;47065;52.898;6.992;2023-08-24T00:32:48;16.30;99.90
61201;DHT22;47065;52.898;6.992;2023-08-24T00:35:14;16.30;99.90
61201;DHT22;47065;52.898;6.992;2023-08-24T00:37:40;16.20;99.90
61201;DHT22;47065;52.898;6.992;2023-08-24T00:40:07;16.10;99.90
61201;DHT22;47065;52.898;6.992;2023-08-24T00:42:40;16.00;99.90
61201;DHT22;47065;52.898;6.992;2023-08-24T00:45:07;16.00;99.90
61201;DHT22;47065;52.898;6.992;2023-08-24T00:47:36;16.00;99.90
61201;DHT22;47065;52.898;6.992;2023-08-24T00:50:02;15.90;99.90
61201;DHT22;47065;52.898;6.992;2023-08-24T00:52:31;15.90;99.90
61201;DHT22;47065;52.898;6.992;2023-08-24T00:54:58;15.80;99.90
61201;DHT22;47065;52.898;6.992;2023-08-24T00:57:24;15.80;99.90
61201;DHT22;47065;52.898;6.992;2023-08-24T00:59:50;15.80;99.90
61201;DHT22;47065;52.898;6.992;2023-08-24T01:02:15;15.70;99.90
61201;DHT22;47065;52.898;6.992;2023-08-24T01:04:41;15.70;99.90
61201;DHT22;47065;52.898;6.992;2023-08-24T01:07:08;15.70;99.90
61201;DHT22;47065;52.898;6.992;2023-08-24T01:09:35;15.70;99.90
61201;DHT22;47065;52.898;6.992;2023-08-24T01:12:09;15.60;99.90
61201;DHT22;47065;52.898;6.992;2023-08-24T01:14:54;15.60;99.90
61201;DHT22;47065;52.898;6.992;2023-08-24T01:17:26;15.60;99.90
61201;DHT22;47065;52.898;6.992;2023-08-24T01:19:55;15.60;99.90
61201;DHT22;47065;52.898;6.992;2023-08-24T01:27:32;15.60;99.90
61201;DHT22;47065;52.898;6.992;2023-08-24T01:30:01;15.50;99.90
61201;DHT22;47065;52.898;6.992;2023-08-24T01:32:26;15.50;99.90
61201;DHT22;47065;52.898;6.992;2023-08-24T01:34:52;15.50;99.90
61201;DHT22;47065;52.898;6.992;2023-08-24T01:37:17;15.50;99.90
61201;DHT22;47065;52.898;6.992;2023-08-24T01:42:51;15.50;99.90
61201;DHT22;47065;52.898;6.992;2023-08-24T01:45:19;15.50;99.90
61201;DHT22;47065;52.898;6.992;2023-08-24T01:47:46;15.60;99.90
61201;DHT22;47065;52.898;6.992;2023-08-24T01:50:13;15.60;99.90
61201;DHT22;47065;52.898;6.992;2023-08-24T01:52:39;15.60;99.90
61201;DHT22;47065;52.898;6.992;2023-08-24T01:55:05;15.60;99.90
61201;DHT22;47065;52.898;6.992;2023-08-24T01:57:31;15.60;99.90
61201;DHT22;47065;52.898;6.992;2023-08-24T01:59:57;15.70;99.90
61201;DHT22;47065;52.898;6.992;2023-08-24T02:02:24;15.70;99.90
61201;DHT22;47065;52.898;6.992;2023-08-24T02:04:49;15.70;99.90
61201;DHT22;47065;52.898;6.992;2023-08-24T02:07:16;15.70;99.90
61201;DHT22;47065;52.898;6.992;2023-08-24T02:09:42;15.70;99.90
61201;DHT22;47065;52.898;6.992;2023-08-24T02:12:08;15.80;99.90
61201;DHT22;47065;52.898;6.992;2023-08-24T02:14:33;15.80;99.90
61201;DHT22;47065;52.898;6.992;2023-08-24T02:16:59;15.90;99.90
61201;DHT22;47065;52.898;6.992;2023-08-24T02:19:25;15.90;99.90
61201;DHT22;47065;52.898;6.992;2023-08-24T02:21:50;16.00;99.90
61201;DHT22;47065;52.898;6.992;2023-08-24T02:24:16;16.00;99.90
61201;DHT22;47065;52.898;6.992;2023-08-24T02:26:41;16.00;99.90
61201;DHT22;47065;52.898;6.992;2023-08-24T02:29:07;16.10;99.90
61201;DHT22;47065;52.898;6.992;2023-08-24T02:31:33;16.10;99.90
61201;DHT22;47065;52.898;6.992;2023-08-24T02:33:58;16.10;99.90
61201;DHT22;47065;52.898;6.992;2023-08-24T02:36:24;16.10;99.90
61201;DHT22;47065;52.898;6.992;2023-08-24T02:38:49;16.20;99.90
61201;DHT22;47065;52.898;6.992;2023-08-24T02:41:15;16.20;99.90
61201;DHT22;47065;52.898;6.992;2023-08-24T02:43:41;16.20;99.90
61201;DHT22;47065;52.898;6.992;2023-08-24T02:46:08;16.30;99.90
61201;DHT22;47065;52.898;6.992;2023-08-24T02:48:35;16.30;99.90
61201;DHT22;47065;52.898;6.992;2023-08-24T02:51:03;16.30;99.90
61201;DHT22;47065;52.898;6.992;2023-08-24T02:53:29;16.30;99.90
61201;DHT22;47065;52.898;6.992;2023-08-24T02:55:58;16.30;99.90
61201;DHT22;47065;52.898;6.992;2023-08-24T02:58:25;16.40;99.90
61201;DHT22;47065;52.898;6.992;2023-08-24T03:00:52;16.30;99.90
61201;DHT22;47065;52.898;6.992;2023-08-24T03:03:18;16.30;99.90
61201;DHT22;47065;52.898;6.992;2023-08-24T03:05:54;16.30;99.90
61201;DHT22;47065;52.898;6.992;2023-08-24T03:08:20;16.30;99.90
61201;DHT22;47065;52.898;6.992;2023-08-24T03:10:46;16.30;99.90
61201;DHT22;47065;52.898;6.992;2023-08-24T03:13:11;16.30;99.90
61201;DHT22;47065;52.898;6.992;2023-08-24T03:15:37;16.30;99.90
61201;DHT22;47065;52.898;6.992;2023-08-24T03:18:03;16.20;99.90
61201;DHT22;47065;52.898;6.992;2023-08-24T03:20:29;16.20;99.90
61201;DHT22;47065;52.898;6.992;2023-08-24T03:22:54;16.20;99.90
61201;DHT22;47065;52.898;6.992;2023-08-24T03:25:20;16.20;99.90
61201;DHT22;47065;52.898;6.992;2023-08-24T03:27:46;16.20;99.90
61201;DHT22;47065;52.898;6.992;2023-08-24T03:30:13;16.20;99.90
61201;DHT22;47065;52.898;6.992;2023-08-24T03:32:40;16.20;99.90
61201;DHT22;47065;52.898;6.992;2023-08-24T03:35:06;16.20;99.90
61201;DHT22;47065;52.898;6.992;2023-08-24T03:37:32;16.20;99.90
61201;DHT22;47065;52.898;6.992;2023-08-24T03:39:58;16.20;99.90
61201;DHT22;47065;52.898;6.992;2023-08-24T03:42:24;16.20;99.90
61201;DHT22;47065;52.898;6.992;2023-08-24T03:44:49;16.20;99.90
61201;DHT22;47065;52.898;6.992;2023-08-24T03:47:15;16.10;99.90
61201;DHT22;47065;52.898;6.992;2023-08-24T03:49:44;16.20;99.90
61201;DHT22;47065;52.898;6.992;2023-08-24T03:52:10;16.10;99.90
61201;DHT22;47065;52.898;6.992;2023-08-24T03:54:35;16.10;99.90
61201;DHT22;47065;52.898;6.992;2023-08-24T03:57:02;16.10;99.90
61201;DHT22;47065;52.898;6.992;2023-08-24T03:59:27;16.00;99.90
61201;DHT22;47065;52.898;6.992;2023-08-24T04:01:53;16.00;99.90
61201;DHT22;47065;52.898;6.992;2023-08-24T04:04:20;16.00;99.90
61201;DHT22;47065;52.898;6.992;2023-08-24T04:06:45;15.90;99.90
61201;DHT22;47065;52.898;6.992;2023-08-24T04:09:11;15.90;99.90
61201;DHT22;47065;52.898;6.992;2023-08-24T04:11:36;15.90;99.90
61201;DHT22;47065;52.898;6.992;2023-08-24T04:14:02;15.90;99.90
61201;DHT22;47065;52.898;6.992;2023-08-24T04:16:28;15.90;99.90
61201;DHT22;47065;52.898;6.992;2023-08-24T04:18:53;15.80;99.90
61201;DHT22;47065;52.898;6.992;2023-08-24T04:21:19;15.80;99.90
61201;DHT22;47065;52.898;6.992;2023-08-24T04:23:45;15.70;99.90
61201;DHT22;47065;52.898;6.992;2023-08-24T04:26:11;15.70;99.90
61201;DHT22;47065;52.898;6.992;2023-08-24T04:28:37;15.70;99.90
61201;DHT22;47065;52.898;6.992;2023-08-24T04:31:03;15.50;99.90
61201;DHT22;47065;52.898;6.992;2023-08-24T04:33:29;15.60;99.90
61201;DHT22;47065;52.898;6.992;2023-08-24T04:35:54;15.50;99.90
61201;DHT22;47065;52.898;6.992;2023-08-24T04:38:20;15.50;99.90
61201;DHT22;47065;52.898;6.992;2023-08-24T04:40:48;15.50;99.90
61201;DHT22;47065;52.898;6.992;2023-08-24T04:43:14;15.40;99.90
61201;DHT22;47065;52.898;6.992;2023-08-24T04:45:39;15.40;99.90
61201;DHT22;47065;52.898;6.992;2023-08-24T04:48:05;15.30;99.90
61201;DHT22;47065;52.898;6.992;2023-08-24T04:50:31;15.30;99.90
61201;DHT22;47065;52.898;6.992;2023-08-24T04:52:56;15.30;99.90
61201;DHT22;47065;52.898;6.992;2023-08-24T04:55:23;15.30;99.90
61201;DHT22;47065;52.898;6.992;2023-08-24T04:57:48;15.30;99.90
61201;DHT22;47065;52.898;6.992;2023-08-24T05:00:15;15.30;99.90
61201;DHT22;47065;52.898;6.992;2023-08-24T05:02:44;15.20;99.90
61201;DHT22;47065;52.898;6.992;2023-08-24T05:05:10;15.20;99.90
61201;DHT22;47065;52.898;6.992;2023-08-24T05:07:38;15.20;99.90
61201;DHT22;47065;52.898;6.992;2023-08-24T05:10:04;15.20;99.90
61201;DHT22;47065;52.898;6.992;2023-08-24T05:12:29;15.20;99.90
61201;DHT22;47065;52.898;6.992;2023-08-24T05:14:55;15.30;99.90
61201;DHT22;47065;52.898;6.992;2023-08-24T05:17:21;15.20;99.90
61201;DHT22;47065;52.898;6.992;2023-08-24T05:19:54;15.30;99.90
61201;DHT22;47065;52.898;6.992;2023-08-24T05:22:19;15.30;99.90
61201;DHT22;47065;52.898;6.992;2023-08-24T05:24:46;15.30;99.90
61201;DHT22;47065;52.898;6.992;2023-08-24T05:27:11;15.30;99.90
61201;DHT22;47065;52.898;6.992;2023-08-24T05:29:37;15.40;99.90
61201;DHT22;47065;52.898;6.992;2023-08-24T05:32:03;15.30;99.90
61201;DHT22;47065;52.898;6.992;2023-08-24T05:34:29;15.40;99.90
61201;DHT22;47065;52.898;6.992;2023-08-24T05:36:54;15.40;99.90
61201;DHT22;47065;52.898;6.992;2023-08-24T05:39:20;15.40;99.90
61201;DHT22;47065;52.898;6.992;2023-08-24T05:41:46;15.40;99.90
61201;DHT22;47065;52.898;6.992;2023-08-24T05:44:11;15.50;99.90
61201;DHT22;47065;52.898;6.992;2023-08-24T05:46:37;15.50;99.90
61201;DHT22;47065;52.898;6.992;2023-08-24T05:49:02;15.50;99.90
61201;DHT22;47065;52.898;6.992;2023-08-24T05:51:28;15.60;99.90
61201;DHT22;47065;52.898;6.992;2023-08-24T05:53:54;15.70;99.90
61201;DHT22;47065;52.898;6.992;2023-08-24T05:56:24;15.70;99.90
61201;DHT22;47065;52.898;6.992;2023-08-24T05:58:49;15.80;99.90
61201;DHT22;47065;52.898;6.992;2023-08-24T06:01:15;15.80;99.90
61201;DHT22;47065;52.898;6.992;2023-08-24T06:03:41;15.90;99.90
61201;DHT22;47065;52.898;6.992;2023-08-24T06:06:06;15.90;99.90
61201;DHT22;47065;52.898;6.992;2023-08-24T06:08:34;16.00;99.90
61201;DHT22;47065;52.898;6.992;2023-08-24T06:11:00;16.00;99.90
61201;DHT22;47065;52.898;6.992;2023-08-24T06:13:26;16.10;99.90
61201;DHT22;47065;52.898;6.992;2023-08-24T06:15:53;16.10;99.90
61201;DHT22;47065;52.898;6.992;2023-08-24T06:18:19;16.20;99.90
61201;DHT22;47065;52.898;6.992;2023-08-24T06:20:45;16.30;99.90
61201;DHT22;47065;52.898;6.992;2023-08-24T06:23:11;16.30;99.90
61201;DHT22;47065;52.898;6.992;2023-08-24T06:25:38;16.40;99.90
61201;DHT22;47065;52.898;6.992;2023-08-24T06:28:04;16.40;99.90
61201;DHT22;47065;52.898;6.992;2023-08-24T06:30:30;16.40;99.90
61201;DHT22;47065;52.898;6.992;2023-08-24T06:33:03;16.50;99.90
61201;DHT22;47065;52.898;6.992;2023-08-24T06:35:29;16.60;99.90
61201;DHT22;47065;52.898;6.992;2023-08-24T06:37:54;16.70;99.90
61201;DHT22;47065;52.898;6.992;2023-08-24T06:40:20;16.80;99.90
61201;DHT22;47065;52.898;6.992;2023-08-24T06:42:46;16.90;99.90
61201;DHT22;47065;52.898;6.992;2023-08-24T06:45:11;17.00;99.90
61201;DHT22;47065;52.898;6.992;2023-08-24T06:47:38;17.20;99.90
61201;DHT22;47065;52.898;6.992;2023-08-24T06:50:05;17.30;99.90
61201;DHT22;47065;52.898;6.992;2023-08-24T06:52:31;17.50;99.90
61201;DHT22;47065;52.898;6.992;2023-08-24T06:54:56;17.70;99.90
61201;DHT22;47065;52.898;6.992;2023-08-24T06:57:22;17.80;99.90
61201;DHT22;47065;52.898;6.992;2023-08-24T06:59:48;17.90;99.90
61201;DHT22;47065;52.898;6.992;2023-08-24T07:02:13;18.00;99.90
61201;DHT22;47065;52.898;6.992;2023-08-24T07:04:40;18.00;99.90
61201;DHT22;47065;52.898;6.992;2023-08-24T07:07:06;18.10;99.90
61201;DHT22;47065;52.898;6.992;2023-08-24T07:09:32;18.20;99.90
61201;DHT22;47065;52.898;6.992;2023-08-24T07:11:58;18.40;99.90
61201;DHT22;47065;52.898;6.992;2023-08-24T07:14:23;18.50;99.90
61201;DHT22;47065;52.898;6.992;2023-08-24T07:16:49;18.70;99.90
61201;DHT22;47065;52.898;6.992;2023-08-24T07:19:15;18.80;99.90
61201;DHT22;47065;52.898;6.992;2023-08-24T07:21:40;18.90;99.90
61201;DHT22;47065;52.898;6.992;2023-08-24T07:24:06;19.00;99.90
61201;DHT22;47065;52.898;6.992;2023-08-24T07:26:33;19.10;99.90
61201;DHT22;47065;52.898;6.992;2023-08-24T07:28:59;19.20;99.90
61201;DHT22;47065;52.898;6.992;2023-08-24T07:31:25;19.20;99.90
61201;DHT22;47065;52.898;6.992;2023-08-24T07:33:50;19.30;99.90
61201;DHT22;47065;52.898;6.992;2023-08-24T07:36:16;19.30;99.90
61201;DHT22;47065;52.898;6.992;2023-08-24T07:38:42;19.40;99.90
61201;DHT22;47065;52.898;6.992;2023-08-24T07:41:07;19.50;99.90
61201;DHT22;47065;52.898;6.992;2023-08-24T07:43:34;19.50;99.90
61201;DHT22;47065;52.898;6.992;2023-08-24T07:46:00;19.60;99.90
61201;DHT22;47065;52.898;6.992;2023-08-24T07:48:26;19.70;99.90
61201;DHT22;47065;52.898;6.992;2023-08-24T07:50:51;19.70;99.90
61201;DHT22;47065;52.898;6.992;2023-08-24T07:53:17;19.80;99.90
61201;DHT22;47065;52.898;6.992;2023-08-24T07:55:43;19.90;99.90
61201;DHT22;47065;52.898;6.992;2023-08-24T07:58:09;20.00;99.90
61201;DHT22;47065;52.898;6.992;2023-08-24T08:00:35;20.20;99.90
61201;DHT22;47065;52.898;6.992;2023-08-24T08:03:00;20.30;99.90
61201;DHT22;47065;52.898;6.992;2023-08-24T08:05:26;20.40;99.90
61201;DHT22;47065;52.898;6.992;2023-08-24T08:07:52;20.60;99.90
61201;DHT22;47065;52.898;6.992;2023-08-24T08:10:18;20.70;99.90
61201;DHT22;47065;52.898;6.992;2023-08-24T08:12:45;20.90;99.90
61201;DHT22;47065;52.898;6.992;2023-08-24T08:15:11;21.00;99.90
61201;DHT22;47065;52.898;6.992;2023-08-24T08:17:37;21.00;99.90
61201;DHT22;47065;52.898;6.992;2023-08-24T08:20:03;21.10;99.90
61201;DHT22;47065;52.898;6.992;2023-08-24T08:22:29;21.20;99.90
61201;DHT22;47065;52.898;6.992;2023-08-24T08:24:54;21.30;99.90
61201;DHT22;47065;52.898;6.992;2023-08-24T08:27:22;21.50;99.90
61201;DHT22;47065;52.898;6.992;2023-08-24T08:29:48;21.60;99.90
61201;DHT22;47065;52.898;6.992;2023-08-24T08:32:14;21.80;99.90
61201;DHT22;47065;52.898;6.992;2023-08-24T08:34:39;22.00;99.90
61201;DHT22;47065;52.898;6.992;2023-08-24T08:37:05;22.20;99.90
61201;DHT22;47065;52.898;6.992;2023-08-24T08:39:32;22.50;99.90
61201;DHT22;47065;52.898;6.992;2023-08-24T08:41:58;22.90;99.90
61201;DHT22;47065;52.898;6.992;2023-08-24T08:44:25;24.00;99.90
61201;DHT22;47065;52.898;6.992;2023-08-24T08:46:54;25.40;99.90
61201;DHT22;47065;52.898;6.992;2023-08-24T08:49:20;26.50;99.90
61201;DHT22;47065;52.898;6.992;2023-08-24T08:51:45;27.30;99.90
61201;DHT22;47065;52.898;6.992;2023-08-24T08:54:11;27.70;99.90
61201;DHT22;47065;52.898;6.992;2023-08-24T08:56:37;27.90;99.90
61201;DHT22;47065;52.898;6.992;2023-08-24T08:59:06;28.20;99.90
61201;DHT22;47065;52.898;6.992;2023-08-24T09:01:32;28.70;99.90
61201;DHT22;47065;52.898;6.992;2023-08-24T09:03:59;29.30;99.90
61201;DHT22;47065;52.898;6.992;2023-08-24T09:06:25;30.00;99.20
61201;DHT22;47065;52.898;6.992;2023-08-24T09:08:52;30.90;97.60
61201;DHT22;47065;52.898;6.992;2023-08-24T09:11:18;31.70;93.50
61201;DHT22;47065;52.898;6.992;2023-08-24T09:13:45;32.30;92.20
61201;DHT22;47065;52.898;6.992;2023-08-24T09:16:10;32.70;90.10
61201;DHT22;47065;52.898;6.992;2023-08-24T09:18:43;33.10;86.80
61201;DHT22;47065;52.898;6.992;2023-08-24T09:21:10;33.40;83.50
61201;DHT22;47065;52.898;6.992;2023-08-24T09:23:37;33.60;81.70
61201;DHT22;47065;52.898;6.992;2023-08-24T09:26:03;33.70;78.30
61201;DHT22;47065;52.898;6.992;2023-08-24T09:28:29;33.80;77.40
61201;DHT22;47065;52.898;6.992;2023-08-24T09:30:56;33.60;76.10
61201;DHT22;47065;52.898;6.992;2023-08-24T09:33:22;33.30;75.90
61201;DHT22;47065;52.898;6.992;2023-08-24T09:35:53;33.00;75.70
61201;DHT22;47065;52.898;6.992;2023-08-24T09:38:23;32.50;75.50
61201;DHT22;47065;52.898;6.992;2023-08-24T09:40:53;32.10;75.50
61201;DHT22;47065;52.898;6.992;2023-08-24T09:43:20;31.60;76.20
61201;DHT22;47065;52.898;6.992;2023-08-24T09:45:53;31.10;78.00
61201;DHT22;47065;52.898;6.992;2023-08-24T09:48:19;30.60;79.40
61201;DHT22;47065;52.898;6.992;2023-08-24T09:50:51;30.30;79.00
61201;DHT22;47065;52.898;6.992;2023-08-24T09:53:17;29.90;78.80
61201;DHT22;47065;52.898;6.992;2023-08-24T09:55:54;29.50;79.40
61201;DHT22;47065;52.898;6.992;2023-08-24T09:58:22;29.00;80.00
61201;DHT22;47065;52.898;6.992;2023-08-24T10:00:49;28.60;81.70
61201;DHT22;47065;52.898;6.992;2023-08-24T10:03:18;28.30;83.00
61201;DHT22;47065;52.898;6.992;2023-08-24T10:05:51;27.90;84.00
61201;DHT22;47065;52.898;6.992;2023-08-24T10:08:21;27.60;85.30
61201;DHT22;47065;52.898;6.992;2023-08-24T10:10:52;27.30;86.20
61201;DHT22;47065;52.898;6.992;2023-08-24T10:13:23;27.10;88.00
61201;DHT22;47065;52.898;6.992;2023-08-24T10:15:50;26.90;89.30
61201;DHT22;47065;52.898;6.992;2023-08-24T10:18:17;26.70;89.60
61201;DHT22;47065;52.898;6.992;2023-08-24T10:20:44;26.50;90.20
61201;DHT22;47065;52.898;6.992;2023-08-24T10:23:12;26.40;90.80
61201;DHT22;47065;52.898;6.992;2023-08-24T10:25:40;26.20;91.30
61201;DHT22;47065;52.898;6.992;2023-08-24T10:28:07;26.10;91.80
61201;DHT22;47065;52.898;6.992;2023-08-24T10:30:35;25.90;92.20
61201;DHT22;47065;52.898;6.992;2023-08-24T10:33:02;25.80;92.90
61201;DHT22;47065;52.898;6.992;2023-08-24T10:35:28;25.70;93.30
61201;DHT22;47065;52.898;6.992;2023-08-24T10:37:54;25.70;93.70
61201;DHT22;47065;52.898;6.992;2023-08-24T10:40:37;25.70;93.90
61201;DHT22;47065;52.898;6.992;2023-08-24T10:43:09;25.70;94.30
61201;DHT22;47065;52.898;6.992;2023-08-24T10:46:03;25.60;94.60
61201;DHT22;47065;52.898;6.992;2023-08-24T10:48:58;25.60;95.30
61201;DHT22;47065;52.898;6.992;2023-08-24T10:51:25;25.50;95.80
61201;DHT22;47065;52.898;6.992;2023-08-24T10:53:59;25.60;95.80
61201;DHT22;47065;52.898;6.992;2023-08-24T10:59:16;25.50;95.50
61201;DHT22;47065;52.898;6.992;2023-08-24T11:04:15;25.50;95.80
61201;DHT22;47065;52.898;6.992;2023-08-24T11:07:00;25.50;95.90
61201;DHT22;47065;52.898;6.992;2023-08-24T11:09:45;25.50;96.30
61201;DHT22;47065;52.898;6.992;2023-08-24T11:12:14;25.50;96.10
61201;DHT22;47065;52.898;6.992;2023-08-24T11:14:49;25.60;96.00
61201;DHT22;47065;52.898;6.992;2023-08-24T11:17:24;25.60;95.70
61201;DHT22;47065;52.898;6.992;2023-08-24T11:19:54;25.60;95.50
61201;DHT22;47065;52.898;6.992;2023-08-24T11:22:21;25.70;95.50
61201;DHT22;47065;52.898;6.992;2023-08-24T11:24:47;25.70;95.40
61201;DHT22;47065;52.898;6.992;2023-08-24T11:27:13;25.80;95.60
61201;DHT22;47065;52.898;6.992;2023-08-24T11:29:38;25.90;96.00
61201;DHT22;47065;52.898;6.992;2023-08-24T11:32:04;26.00;96.30
61201;DHT22;47065;52.898;6.992;2023-08-24T11:34:30;26.10;96.40
61201;DHT22;47065;52.898;6.992;2023-08-24T11:36:57;26.20;96.00
61201;DHT22;47065;52.898;6.992;2023-08-24T11:39:23;26.30;95.70
61201;DHT22;47065;52.898;6.992;2023-08-24T11:42:04;26.40;95.20
61201;DHT22;47065;52.898;6.992;2023-08-24T11:44:44;26.50;95.20
61201;DHT22;47065;52.898;6.992;2023-08-24T11:47:11;26.60;95.50
61201;DHT22;47065;52.898;6.992;2023-08-24T11:49:37;26.70;94.70
61201;DHT22;47065;52.898;6.992;2023-08-24T11:52:03;26.70;94.80
61201;DHT22;47065;52.898;6.992;2023-08-24T11:54:32;26.80;94.60
61201;DHT22;47065;52.898;6.992;2023-08-24T11:56:58;26.80;94.20
61201;DHT22;47065;52.898;6.992;2023-08-24T11:59:23;26.80;94.10
61201;DHT22;47065;52.898;6.992;2023-08-24T12:01:50;26.70;93.80
61201;DHT22;47065;52.898;6.992;2023-08-24T12:04:16;26.60;94.10
61201;DHT22;47065;52.898;6.992;2023-08-24T12:06:42;26.60;94.30
61201;DHT22;47065;52.898;6.992;2023-08-24T12:09:07;26.60;94.30
61201;DHT22;47065;52.898;6.992;2023-08-24T12:11:37;26.50;94.50
61201;DHT22;47065;52.898;6.992;2023-08-24T12:14:04;26.50;94.40
61201;DHT22;47065;52.898;6.992;2023-08-24T12:16:32;26.50;94.50
61201;DHT22;47065;52.898;6.992;2023-08-24T12:18:59;26.50;94.80
61201;DHT22;47065;52.898;6.992;2023-08-24T12:21:28;26.50;94.90
61201;DHT22;47065;52.898;6.992;2023-08-24T12:24:05;26.50;94.70
61201;DHT22;47065;52.898;6.992;2023-08-24T12:26:32;26.60;94.50
61201;DHT22;47065;52.898;6.992;2023-08-24T12:29:05;26.50;94.40
61201;DHT22;47065;52.898;6.992;2023-08-24T12:31:32;26.50;94.80
61201;DHT22;47065;52.898;6.992;2023-08-24T12:34:07;26.40;95.00
61201;DHT22;47065;52.898;6.992;2023-08-24T12:36:38;26.30;95.40
61201;DHT22;47065;52.898;6.992;2023-08-24T12:39:05;26.30;95.50
61201;DHT22;47065;52.898;6.992;2023-08-24T12:41:31;26.30;95.90
61201;DHT22;47065;52.898;6.992;2023-08-24T12:43:57;26.30;95.70
61201;DHT22;47065;52.898;6.992;2023-08-24T12:46:23;26.30;95.90
61201;DHT22;47065;52.898;6.992;2023-08-24T12:48:49;26.30;95.90
61201;DHT22;47065;52.898;6.992;2023-08-24T12:51:16;26.30;95.90
61201;DHT22;47065;52.898;6.992;2023-08-24T12:53:42;26.30;95.70
61201;DHT22;47065;52.898;6.992;2023-08-24T12:56:07;26.30;95.80
61201;DHT22;47065;52.898;6.992;2023-08-24T12:58:33;26.30;96.00
61201;DHT22;47065;52.898;6.992;2023-08-24T13:00:59;26.40;95.70
61201;DHT22;47065;52.898;6.992;2023-08-24T13:03:25;26.40;95.30
61201;DHT22;47065;52.898;6.992;2023-08-24T13:05:51;26.50;95.00
61201;DHT22;47065;52.898;6.992;2023-08-24T13:08:16;26.50;95.00
61201;DHT22;47065;52.898;6.992;2023-08-24T13:10:42;26.50;94.80
61201;DHT22;47065;52.898;6.992;2023-08-24T13:13:08;26.60;95.10
61201;DHT22;47065;52.898;6.992;2023-08-24T13:15:34;26.60;94.90
61201;DHT22;47065;52.898;6.992;2023-08-24T13:17:59;26.70;95.10
61201;DHT22;47065;52.898;6.992;2023-08-24T13:20:25;26.70;95.80
61201;DHT22;47065;52.898;6.992;2023-08-24T13:22:52;26.70;95.90
61201;DHT22;47065;52.898;6.992;2023-08-24T13:25:18;26.70;95.90
61201;DHT22;47065;52.898;6.992;2023-08-24T13:27:43;26.70;95.80
61201;DHT22;47065;52.898;6.992;2023-08-24T13:30:09;26.70;95.40
61201;DHT22;47065;52.898;6.992;2023-08-24T13:32:35;26.70;95.20
61201;DHT22;47065;52.898;6.992;2023-08-24T13:35:02;26.70;95.00
61201;DHT22;47065;52.898;6.992;2023-08-24T13:37:28;26.70;95.00
61201;DHT22;47065;52.898;6.992;2023-08-24T13:39:54;26.70;95.20
61201;DHT22;47065;52.898;6.992;2023-08-24T13:42:19;26.70;95.30
61201;DHT22;47065;52.898;6.992;2023-08-24T13:44:46;26.70;95.20
61201;DHT22;47065;52.898;6.992;2023-08-24T13:47:12;26.60;95.40
61201;DHT22;47065;52.898;6.992;2023-08-24T13:49:38;26.60;95.80
61201;DHT22;47065;52.898;6.992;2023-08-24T13:52:04;26.60;95.80
61201;DHT22;47065;52.898;6.992;2023-08-24T13:54:29;26.60;95.50
61201;DHT22;47065;52.898;6.992;2023-08-24T13:56:56;26.60;95.70
61201;DHT22;47065;52.898;6.992;2023-08-24T13:59:22;26.60;95.80
61201;DHT22;47065;52.898;6.992;2023-08-24T14:01:47;26.60;95.70
61201;DHT22;47065;52.898;6.992;2023-08-24T14:04:13;26.60;95.60
61201;DHT22;47065;52.898;6.992;2023-08-24T14:06:39;26.60;95.60
61201;DHT22;47065;52.898;6.992;2023-08-24T14:09:05;26.60;95.40
61201;DHT22;47065;52.898;6.992;2023-08-24T14:11:32;26.60;95.70
61201;DHT22;47065;52.898;6.992;2023-08-24T14:13:58;26.60;96.10
61201;DHT22;47065;52.898;6.992;2023-08-24T14:16:24;26.60;96.20
61201;DHT22;47065;52.898;6.992;2023-08-24T14:18:51;26.50;96.20
61201;DHT22;47065;52.898;6.992;2023-08-24T14:21:17;26.40;96.80
61201;DHT22;47065;52.898;6.992;2023-08-24T14:23:44;26.40;96.90
61201;DHT22;47065;52.898;6.992;2023-08-24T14:26:10;26.30;97.40
61201;DHT22;47065;52.898;6.992;2023-08-24T14:28:55;26.20;97.80
61201;DHT22;47065;52.898;6.992;2023-08-24T14:31:26;26.10;98.00
61201;DHT22;47065;52.898;6.992;2023-08-24T14:33:52;26.00;98.40
61201;DHT22;47065;52.898;6.992;2023-08-24T14:36:19;25.90;98.90
61201;DHT22;47065;52.898;6.992;2023-08-24T14:38:46;25.70;99.30
61201;DHT22;47065;52.898;6.992;2023-08-24T14:41:12;25.70;99.70
61201;DHT22;47065;52.898;6.992;2023-08-24T14:43:39;25.50;99.90
61201;DHT22;47065;52.898;6.992;2023-08-24T14:46:05;25.40;99.90
61201;DHT22;47065;52.898;6.992;2023-08-24T14:48:31;25.30;99.90
61201;DHT22;47065;52.898;6.992;2023-08-24T14:50:57;25.20;99.90
61201;DHT22;47065;52.898;6.992;2023-08-24T14:53:24;25.10;99.90
61201;DHT22;47065;52.898;6.992;2023-08-24T14:55:49;25.10;99.90
61201;DHT22;47065;52.898;6.992;2023-08-24T14:58:15;25.00;99.90
61201;DHT22;47065;52.898;6.992;2023-08-24T15:00:41;24.90;99.90
61201;DHT22;47065;52.898;6.992;2023-08-24T15:03:07;24.90;99.90
61201;DHT22;47065;52.898;6.992;2023-08-24T15:05:44;24.80;99.90
61201;DHT22;47065;52.898;6.992;2023-08-24T15:08:11;24.70;99.90
61201;DHT22;47065;52.898;6.992;2023-08-24T15:10:37;24.70;99.90
61201;DHT22;47065;52.898;6.992;2023-08-24T15:13:03;24.70;99.90
61201;DHT22;47065;52.898;6.992;2023-08-24T15:15:29;24.60;99.90
61201;DHT22;47065;52.898;6.992;2023-08-24T15:17:55;24.60;99.90
61201;DHT22;47065;52.898;6.992;2023-08-24T15:20:20;24.50;99.90
61201;DHT22;47065;52.898;6.992;2023-08-24T15:22:46;24.40;99.90
61201;DHT22;47065;52.898;6.992;2023-08-24T15:25:12;24.30;99.90
61201;DHT22;47065;52.898;6.992;2023-08-24T15:27:37;24.30;99.90
61201;DHT22;47065;52.898;6.992;2023-08-24T15:30:03;24.20;99.90
61201;DHT22;47065;52.898;6.992;2023-08-24T15:32:33;24.20;99.90
61201;DHT22;47065;52.898;6.992;2023-08-24T15:34:59;24.10;99.90
61201;DHT22;47065;52.898;6.992;2023-08-24T15:37:24;24.00;99.90
61201;DHT22;47065;52.898;6.992;2023-08-24T15:39:50;24.00;99.90
61201;DHT22;47065;52.898;6.992;2023-08-24T15:42:16;24.00;99.90